Time;durP1;ratioP1;P1;durP2;ratioP2;P2;SDS_P1;SDS_P2;PMS_P1;PMS_P2;Temp;Humidity;BMP_temperature;BMP_pressure;BME280_temperature;BME280_humidity;BME280_pressure;Samples;Min_cycle;Max_cycle;Signal;HPM_P1;HPM_P2
2021/03/22 00:01:20;;;;;;;13.10;4.82;;;9.30;99.90;;;;;;5071013;28;20198;-79
2021/03/22 00:03:47;;;;;;;7.45;2.05;;;9.30;99.90;;;;;;5075243;28;21305;-80
2021/03/22 00:06:13;;;;;;;5.95;2.30;;;9.30;99.90;;;;;;5071314;28;20244;-78
2021/03/22 00:08:40;;;;;;;10.52;1.95;;;9.40;99.90;;;;;;5079591;28;20217;-78
2021/03/22 00:11:06;;;;;;;10.68;3.03;;;9.20;99.90;;;;;;5074738;28;20319;-79
2021/03/22 00:13:32;;;;;;;7.65;2.83;;;9.20;99.90;;;;;;5079357;28;20194;-78
2021/03/22 00:16:02;;;;;;;6.35;2.22;;;9.20;99.90;;;;;;5078382;28;20213;-79
2021/03/22 00:18:30;;;;;;;7.20;2.15;;;9.20;99.90;;;;;;5081194;28;20541;-79
2021/03/22 00:20:58;;;;;;;3.40;1.75;;;9.20;99.90;;;;;;5070207;28;20732;-79
2021/03/22 00:23:24;;;;;;;6.45;2.00;;;9.20;99.90;;;;;;5075764;28;20553;-80
2021/03/22 00:25:51;;;;;;;6.70;2.42;;;9.20;99.90;;;;;;5073294;28;20228;-80
2021/03/22 00:28:21;;;;;;;7.68;1.92;;;9.20;99.90;;;;;;5074394;28;20669;-78
2021/03/22 00:30:48;;;;;;;5.18;1.88;;;9.20;99.90;;;;;;5071951;28;20230;-79
2021/03/22 00:33:16;;;;;;;5.57;2.38;;;9.20;99.90;;;;;;5074515;28;20296;-79
2021/03/22 00:35:43;;;;;;;10.45;3.22;;;9.20;99.90;;;;;;5070067;28;20229;-79
2021/03/22 00:38:13;;;;;;;3.28;1.88;;;9.20;99.90;;;;;;5077938;28;20649;-83
2021/03/22 00:40:41;;;;;;;7.03;2.35;;;9.20;99.90;;;;;;5083008;28;20213;-80
2021/03/22 00:43:09;;;;;;;8.43;1.70;;;9.20;99.90;;;;;;5075036;28;20198;-79
2021/03/22 00:45:35;;;;;;;9.23;2.40;;;9.20;99.90;;;;;;5078587;28;20308;-80
2021/03/22 00:48:02;;;;;;;10.07;2.30;;;9.20;99.90;;;;;;5076475;28;20259;-80
2021/03/22 00:50:31;;;;;;;10.35;2.72;;;9.20;99.90;;;;;;5080517;28;20225;-80
2021/03/22 00:52:57;;;;;;;9.45;1.92;;;9.10;99.90;;;;;;5072721;28;20225;-80
2021/03/22 00:55:25;;;;;;;4.57;2.05;;;9.10;99.90;;;;;;5082736;28;20723;-79
2021/03/22 00:57:53;;;;;;;5.05;2.28;;;9.10;99.90;;;;;;5079368;28;20628;-80
2021/03/22 01:00:24;;;;;;;4.55;1.73;;;9.10;99.90;;;;;;5070836;28;20222;-80
2021/03/22 01:02:50;;;;;;;5.63;2.10;;;9.10;99.90;;;;;;5081320;28;20753;-80
2021/03/22 01:05:17;;;;;;;4.78;2.00;;;9.10;99.90;;;;;;5071223;28;20597;-80
2021/03/22 01:07:44;;;;;;;11.90;2.58;;;9.10;99.90;;;;;;5075422;28;20194;-80
2021/03/22 01:10:24;;;;;;;9.13;1.90;;;9.10;99.90;;;;;;5076480;28;20576;-80
2021/03/22 01:12:51;;;;;;;11.98;3.42;;;9.00;99.90;;;;;;5074232;28;20213;-80
2021/03/22 01:15:18;;;;;;;10.80;2.42;;;9.10;99.90;;;;;;5072226;28;20688;-79
2021/03/22 01:17:44;;;;;;;6.65;2.40;;;9.10;99.90;;;;;;5074024;28;20217;-79
2021/03/22 01:20:12;;;;;;;8.82;2.97;;;9.00;99.90;;;;;;5077176;28;20233;-79
2021/03/22 01:22:39;;;;;;;8.82;2.80;;;9.00;99.90;;;;;;5080429;28;20591;-80
2021/03/22 01:25:06;;;;;;;7.55;2.00;;;9.00;99.90;;;;;;5075833;28;20197;-80
2021/03/22 01:27:33;;;;;;;3.40;1.98;;;9.00;99.90;;;;;;5077918;28;20263;-80
2021/03/22 01:30:00;;;;;;;3.97;2.20;;;9.00;99.90;;;;;;5072015;28;20191;-80
2021/03/22 01:32:26;;;;;;;6.05;2.10;;;9.00;99.90;;;;;;5071743;28;20194;-80
2021/03/22 01:34:53;;;;;;;9.02;2.10;;;9.00;99.90;;;;;;5073060;28;20230;-80
2021/03/22 01:37:19;;;;;;;3.65;1.90;;;9.00;99.90;;;;;;5075774;28;20217;-80
2021/03/22 01:39:45;;;;;;;10.02;3.15;;;9.00;99.90;;;;;;5080402;28;20199;-80
2021/03/22 01:42:21;;;;;;;8.10;2.42;;;9.00;99.90;;;;;;5081248;28;20196;-80
2021/03/22 01:44:51;;;;;;;8.10;2.42;;;9.00;99.90;;;;;;5074086;28;20259;-80
2021/03/22 01:47:22;;;;;;;8.50;2.47;;;9.00;99.90;;;;;;5076151;28;20603;-80
2021/03/22 01:49:52;;;;;;;7.70;2.72;;;9.00;99.90;;;;;;5075207;28;20260;-80
2021/03/22 01:52:18;;;;;;;7.47;2.53;;;9.00;99.90;;;;;;5074121;28;20255;-79
2021/03/22 01:54:45;;;;;;;9.23;1.92;;;9.00;99.90;;;;;;5077913;28;20233;-80
2021/03/22 01:57:34;;;;;;;8.05;2.72;;;8.90;99.90;;;;;;5079232;28;20207;-80
2021/03/22 02:00:09;;;;;;;8.15;3.13;;;8.90;99.90;;;;;;5081972;28;20214;-80
2021/03/22 02:02:37;;;;;;;10.63;2.60;;;8.90;99.90;;;;;;5075927;28;20216;-80
2021/03/22 02:05:04;;;;;;;9.65;2.17;;;8.90;99.90;;;;;;5075303;28;20566;-80
2021/03/22 02:07:31;;;;;;;5.85;2.22;;;8.90;99.90;;;;;;5074091;28;20194;-79
2021/03/22 02:09:57;;;;;;;7.28;2.55;;;8.90;99.90;;;;;;5073589;28;20213;-80
2021/03/22 02:12:24;;;;;;;16.27;3.15;;;8.90;99.90;;;;;;5074818;28;20240;-80
2021/03/22 02:14:53;;;;;;;9.02;3.13;;;8.90;99.90;;;;;;5074608;28;20225;-79
2021/03/22 02:17:28;;;;;;;4.50;2.30;;;8.90;99.90;;;;;;5073324;28;20222;-79
2021/03/22 02:20:34;;;;;;;6.85;2.15;;;8.90;99.90;;;;;;5084947;28;20186;-80
2021/03/22 02:23:35;;;;;;;10.82;2.67;;;8.90;99.90;;;;;;5075396;28;20609;-80
2021/03/22 02:26:11;;;;;;;6.47;1.60;;;8.90;99.90;;;;;;5045989;28;20596;-79
2021/03/22 02:29:01;;;;;;;5.13;2.03;;;8.90;99.90;;;;;;5085580;28;20198;-79
2021/03/22 02:32:07;;;;;;;2.72;1.63;;;8.90;99.90;;;;;;5064159;28;20731;-79
2021/03/22 02:34:39;;;;;;;3.80;1.80;;;8.90;99.90;;;;;;5049785;28;20684;-80
2021/03/22 02:37:42;;;;;;;3.55;1.90;;;8.90;99.90;;;;;;5080413;28;20210;-80
2021/03/22 02:40:19;;;;;;;7.35;2.08;;;8.90;99.90;;;;;;5066871;28;20626;-79
2021/03/22 02:42:48;;;;;;;6.75;1.80;;;8.90;99.90;;;;;;5076091;28;20218;-80
2021/03/22 02:45:21;;;;;;;7.75;2.38;;;8.90;99.90;;;;;;5079264;28;20562;-80
2021/03/22 02:47:47;;;;;;;12.73;2.25;;;8.90;99.90;;;;;;5077701;28;20972;-80
2021/03/22 02:50:18;;;;;;;4.75;1.80;;;8.90;99.90;;;;;;5072223;28;20194;-80
2021/03/22 02:53:11;;;;;;;6.72;2.85;;;8.90;99.90;;;;;;5072933;28;20657;-80
2021/03/22 02:55:49;;;;;;;6.78;2.00;;;8.90;99.90;;;;;;5076170;28;20213;-80
2021/03/22 02:58:18;;;;;;;9.23;2.25;;;8.90;99.90;;;;;;5080248;28;20210;-80
2021/03/22 03:00:53;;;;;;;8.18;2.13;;;8.80;99.90;;;;;;5080218;28;20232;-80
2021/03/22 03:03:21;;;;;;;5.85;2.13;;;8.80;99.90;;;;;;5083998;28;20213;-83
2021/03/22 03:05:50;;;;;;;2.22;1.85;;;8.80;99.90;;;;;;5080739;28;20247;-79
2021/03/22 03:08:20;;;;;;;5.43;1.75;;;8.80;99.90;;;;;;5079909;28;20198;-79
2021/03/22 03:10:47;;;;;;;4.65;1.63;;;8.80;99.90;;;;;;5076531;28;20213;-79
2021/03/22 03:13:13;;;;;;;7.07;2.20;;;8.80;99.90;;;;;;5081961;28;20193;-79
2021/03/22 03:15:39;;;;;;;9.35;3.00;;;8.80;99.90;;;;;;5085657;28;20320;-79
2021/03/22 03:18:06;;;;;;;8.85;2.58;;;8.80;99.90;;;;;;5080836;28;20675;-80
2021/03/22 03:20:32;;;;;;;7.47;2.33;;;8.80;99.90;;;;;;5079100;28;20236;-80
2021/03/22 03:23:00;;;;;;;3.30;1.88;;;8.80;99.90;;;;;;5077665;28;20218;-80
2021/03/22 03:25:27;;;;;;;3.50;1.85;;;8.80;99.90;;;;;;5071443;28;20230;-79
2021/03/22 03:27:55;;;;;;;4.47;2.08;;;8.80;99.90;;;;;;5077682;28;20317;-80
2021/03/22 03:30:25;;;;;;;6.88;2.00;;;8.80;99.90;;;;;;5080547;28;20187;-79
2021/03/22 03:32:53;;;;;;;6.05;2.13;;;8.80;99.90;;;;;;5076208;28;20197;-78
2021/03/22 03:35:21;;;;;;;7.95;1.98;;;8.80;99.90;;;;;;5076592;28;20282;-79
2021/03/22 03:37:47;;;;;;;5.82;2.47;;;8.80;99.90;;;;;;5081308;28;20197;-79
2021/03/22 03:40:20;;;;;;;6.95;3.28;;;8.80;99.90;;;;;;5083778;28;20206;-79
2021/03/22 03:42:46;;;;;;;3.83;1.92;;;8.80;99.90;;;;;;5071032;28;20214;-79
2021/03/22 03:45:15;;;;;;;5.55;1.83;;;8.80;99.90;;;;;;5076563;28;20209;-79
2021/03/22 03:47:41;;;;;;;5.93;1.75;;;8.80;99.90;;;;;;5076885;28;20218;-79
2021/03/22 03:50:10;;;;;;;5.32;2.15;;;8.80;99.90;;;;;;5070970;28;20225;-79
2021/03/22 03:52:37;;;;;;;3.85;1.88;;;8.80;99.90;;;;;;5081068;28;20606;-80
2021/03/22 03:55:06;;;;;;;4.00;2.28;;;8.80;99.90;;;;;;5079896;28;20655;-79
2021/03/22 03:57:33;;;;;;;6.18;1.98;;;8.70;99.90;;;;;;5072876;28;20209;-79
2021/03/22 03:59:59;;;;;;;7.47;3.05;;;8.70;99.90;;;;;;5076877;28;20225;-80
2021/03/22 04:02:26;;;;;;;3.30;1.92;;;8.70;99.90;;;;;;5082318;28;20270;-80
2021/03/22 04:04:52;;;;;;;9.70;2.45;;;8.70;99.90;;;;;;5071009;28;20225;-79
2021/03/22 04:07:18;;;;;;;4.75;2.20;;;8.70;99.90;;;;;;5083432;28;20198;-79
2021/03/22 04:09:44;;;;;;;6.72;2.30;;;8.70;99.90;;;;;;5081458;28;20237;-80
2021/03/22 04:12:11;;;;;;;7.75;2.40;;;8.70;99.90;;;;;;5088152;28;20278;-79
2021/03/22 04:14:39;;;;;;;3.25;1.65;;;8.70;99.90;;;;;;5082187;28;20703;-79
2021/03/22 04:17:05;;;;;;;7.38;2.10;;;8.70;99.90;;;;;;5077217;28;20660;-79
2021/03/22 04:19:32;;;;;;;4.32;1.77;;;8.70;99.90;;;;;;5077575;28;20190;-79
2021/03/22 04:21:58;;;;;;;5.47;2.13;;;8.70;99.90;;;;;;5076755;28;20228;-79
2021/03/22 04:24:24;;;;;;;5.25;1.50;;;8.70;99.90;;;;;;5070104;28;20210;-78
2021/03/22 04:26:50;;;;;;;4.95;1.60;;;8.70;99.90;;;;;;5082463;28;20193;-79
2021/03/22 04:29:17;;;;;;;3.67;2.05;;;8.70;99.90;;;;;;5079863;28;20683;-83
2021/03/22 04:31:44;;;;;;;5.13;1.73;;;8.70;99.90;;;;;;5074437;28;20185;-79
2021/03/22 04:34:12;;;;;;;3.35;1.80;;;8.70;99.90;;;;;;5075140;28;20681;-80
2021/03/22 04:36:38;;;;;;;8.40;2.35;;;8.70;99.90;;;;;;5074138;28;20229;-80
2021/03/22 04:39:06;;;;;;;3.20;2.03;;;8.70;99.90;;;;;;5076817;28;20225;-82
2021/03/22 04:41:32;;;;;;;6.00;1.95;;;8.70;99.90;;;;;;5081037;28;20237;-79
2021/03/22 04:43:59;;;;;;;5.72;2.53;;;8.70;99.90;;;;;;5080777;28;20225;-79
2021/03/22 04:46:25;;;;;;;6.40;2.65;;;8.70;99.90;;;;;;5076709;28;20218;-79
2021/03/22 04:48:52;;;;;;;8.13;2.10;;;8.70;99.90;;;;;;5077115;28;20764;-79
2021/03/22 04:51:18;;;;;;;5.78;2.17;;;8.70;99.90;;;;;;5076758;28;20221;-79
2021/03/22 04:53:45;;;;;;;6.82;2.78;;;8.60;99.90;;;;;;5079468;28;20197;-79
2021/03/22 04:56:11;;;;;;;6.85;2.05;;;8.70;99.90;;;;;;5075028;28;20222;-79
2021/03/22 04:58:38;;;;;;;7.03;1.90;;;8.70;99.90;;;;;;5080108;28;20206;-79
2021/03/22 05:01:05;;;;;;;4.90;2.15;;;8.60;99.90;;;;;;5075394;28;20221;-79
2021/03/22 05:03:32;;;;;;;6.00;1.85;;;8.70;99.90;;;;;;5081982;28;20693;-80
2021/03/22 05:05:59;;;;;;;3.63;2.20;;;8.70;99.90;;;;;;5086633;28;20750;-79
2021/03/22 05:08:25;;;;;;;5.03;2.20;;;8.70;99.90;;;;;;5090945;28;20279;-80
2021/03/22 05:10:55;;;;;;;7.72;2.47;;;8.60;99.90;;;;;;5076547;28;20214;-80
2021/03/22 05:13:23;;;;;;;4.30;2.00;;;8.60;99.90;;;;;;5086924;28;20266;-79
2021/03/22 05:15:50;;;;;;;5.88;2.40;;;8.70;99.90;;;;;;5093030;28;20215;-80
2021/03/22 05:18:18;;;;;;;3.83;1.75;;;8.60;99.90;;;;;;5083864;28;20198;-80
2021/03/22 05:20:46;;;;;;;6.75;2.70;;;8.60;99.90;;;;;;5073329;28;20245;-80
2021/03/22 05:23:15;;;;;;;4.70;2.50;;;8.60;99.90;;;;;;5082810;28;20201;-79
2021/03/22 05:25:41;;;;;;;3.45;2.00;;;8.60;99.90;;;;;;5084159;28;20194;-79
2021/03/22 05:28:09;;;;;;;5.85;2.05;;;8.60;99.90;;;;;;5078525;28;20222;-79
2021/03/22 05:30:36;;;;;;;4.32;2.00;;;8.60;99.90;;;;;;5073608;28;20229;-80
2021/03/22 05:33:05;;;;;;;3.45;2.20;;;8.60;99.90;;;;;;5091928;28;20656;-79
2021/03/22 05:35:32;;;;;;;4.13;2.40;;;8.60;99.90;;;;;;5093895;28;20240;-79
2021/03/22 05:37:59;;;;;;;6.00;2.72;;;8.50;99.90;;;;;;5076565;28;20680;-79
2021/03/22 05:40:29;;;;;;;4.22;1.90;;;8.50;99.90;;;;;;5074940;28;20222;-80
2021/03/22 05:43:07;;;;;;;4.05;2.53;;;8.50;99.90;;;;;;5076972;28;20312;-79
2021/03/22 05:45:56;;;;;;;6.32;1.90;;;8.50;99.90;;;;;;5075314;28;20193;-79
2021/03/22 05:48:46;;;;;;;10.25;2.83;;;8.50;99.90;;;;;;5079492;28;20715;-80
2021/03/22 05:51:49;;;;;;;8.45;2.17;;;8.50;99.90;;;;;;5069963;28;20198;-80
2021/03/22 05:54:44;;;;;;;5.57;2.67;;;8.50;99.90;;;;;;5078591;28;20305;-80
2021/03/22 05:57:19;;;;;;;5.18;2.90;;;8.50;99.90;;;;;;5072217;28;20213;-80
2021/03/22 05:59:51;;;;;;;10.15;2.25;;;8.50;99.90;;;;;;5073475;28;20186;-80
2021/03/22 06:02:32;;;;;;;4.63;2.40;;;8.50;99.90;;;;;;5073857;28;20218;-80
2021/03/22 06:05:04;;;;;;;6.85;2.50;;;8.40;99.90;;;;;;5073743;28;20251;-80
2021/03/22 06:07:37;;;;;;;5.28;2.90;;;8.40;99.90;;;;;;5072877;28;20215;-79
2021/03/22 06:10:11;;;;;;;6.20;2.65;;;8.50;99.90;;;;;;5081530;28;20217;-80
2021/03/22 06:12:43;;;;;;;7.97;2.42;;;8.50;99.90;;;;;;5082437;28;20224;-80
2021/03/22 06:15:29;;;;;;;5.40;2.70;;;8.50;99.90;;;;;;5077205;28;20206;-80
2021/03/22 06:18:01;;;;;;;5.10;2.53;;;8.50;99.90;;;;;;5084842;28;20213;-80
2021/03/22 06:20:30;;;;;;;5.88;2.28;;;8.50;99.90;;;;;;5077679;28;20705;-80
2021/03/22 06:23:02;;;;;;;5.35;3.30;;;8.50;99.90;;;;;;5073823;28;20194;-80
2021/03/22 06:25:30;;;;;;;6.78;2.83;;;8.50;99.90;;;;;;5075537;28;20181;-80
2021/03/22 06:28:05;;;;;;;4.07;2.33;;;8.50;99.90;;;;;;5087739;28;20210;-81
2021/03/22 06:30:31;;;;;;;5.07;2.58;;;8.40;99.90;;;;;;5082556;28;20699;-80
2021/03/22 06:33:01;;;;;;;4.28;2.65;;;8.50;99.90;;;;;;5083947;28;20197;-80
2021/03/22 06:35:34;;;;;;;4.78;2.35;;;8.50;99.90;;;;;;5072901;28;20225;-80
2021/03/22 06:38:00;;;;;;;5.68;2.40;;;8.50;99.90;;;;;;5083978;28;20720;-79
2021/03/22 06:40:32;;;;;;;6.20;2.80;;;8.60;99.90;;;;;;5079021;28;20861;-79
2021/03/22 06:43:09;;;;;;;6.35;2.90;;;8.60;99.90;;;;;;5083244;28;20213;-79
2021/03/22 06:45:39;;;;;;;7.68;3.25;;;8.50;99.90;;;;;;5080097;28;20218;-79
2021/03/22 06:48:18;;;;;;;5.90;3.00;;;8.50;99.90;;;;;;5078375;28;20206;-79
2021/03/22 06:50:46;;;;;;;15.63;3.30;;;8.50;99.90;;;;;;5088490;28;20305;-79
2021/03/22 06:53:32;;;;;;;5.22;2.72;;;8.50;99.90;;;;;;5072046;28;20221;-79
2021/03/22 06:56:18;;;;;;;5.22;2.53;;;8.50;99.90;;;;;;5071943;28;20230;-79
2021/03/22 06:58:46;;;;;;;6.03;2.88;;;8.50;99.90;;;;;;5079726;28;20225;-77
2021/03/22 07:01:25;;;;;;;5.53;2.85;;;8.50;99.90;;;;;;5072975;28;20217;-76
2021/03/22 07:03:53;;;;;;;5.72;2.30;;;8.50;99.90;;;;;;5077898;28;20308;-79
2021/03/22 07:06:23;;;;;;;5.28;3.28;;;8.50;99.90;;;;;;5076198;28;20704;-78
2021/03/22 07:08:51;;;;;;;8.75;3.88;;;8.50;99.90;;;;;;5083791;28;20213;-79
2021/03/22 07:11:19;;;;;;;6.60;3.00;;;8.50;99.90;;;;;;5081094;28;20212;-80
2021/03/22 07:13:57;;;;;;;5.55;2.67;;;8.40;99.90;;;;;;5073733;28;20280;-80
2021/03/22 07:16:26;;;;;;;6.28;2.63;;;8.60;99.90;;;;;;5079661;28;20713;-78
2021/03/22 07:19:15;;;;;;;8.30;3.10;;;8.80;99.90;;;;;;5079916;28;20296;-77
2021/03/22 07:21:47;;;;;;;9.70;2.85;;;9.10;99.90;;;;;;5074778;28;20715;-76
2021/03/22 07:24:18;;;;;;;4.00;2.33;;;9.20;99.90;;;;;;5080462;28;20194;-77
2021/03/22 07:27:03;;;;;;;8.68;3.38;;;9.10;99.90;;;;;;5074130;28;20190;-79
2021/03/22 07:29:53;;;;;;;6.18;2.60;;;9.10;99.90;;;;;;5072514;28;20267;-79
2021/03/22 07:32:47;;;;;;;10.55;2.63;;;9.00;99.90;;;;;;5043983;28;20331;-79
2021/03/22 07:35:41;;;;;;;7.65;2.72;;;9.00;99.90;;;;;;5071583;28;20260;-79
2021/03/22 07:38:17;;;;;;;5.38;2.80;;;9.00;99.90;;;;;;5070664;28;20216;-78
2021/03/22 07:40:50;;;;;;;4.00;2.33;;;9.00;99.90;;;;;;5083682;28;20227;-78
2021/03/22 07:43:37;;;;;;;4.50;2.60;;;9.00;99.90;;;;;;5083060;28;20200;-78
2021/03/22 07:46:13;;;;;;;4.90;2.78;;;9.00;99.90;;;;;;5068695;28;20221;-78
2021/03/22 07:48:59;;;;;;;6.25;2.67;;;9.00;99.90;;;;;;5073645;28;20197;-79
2021/03/22 07:51:53;;;;;;;7.15;3.00;;;9.00;99.90;;;;;;5078508;28;20680;-78
2021/03/22 07:54:34;;;;;;;5.50;1.88;;;9.00;99.90;;;;;;5081544;28;20218;-78
2021/03/22 07:57:05;;;;;;;9.85;2.67;;;9.00;99.90;;;;;;5084867;28;20202;-78
2021/03/22 07:59:43;;;;;;;4.78;2.45;;;9.00;99.90;;;;;;5078287;28;20249;-78
2021/03/22 08:02:24;;;;;;;6.50;3.30;;;9.00;99.90;;;;;;5079543;28;20214;-77
2021/03/22 08:04:55;;;;;;;3.50;2.60;;;9.00;99.90;;;;;;5082494;28;20221;-79
2021/03/22 08:07:39;;;;;;;5.15;2.95;;;9.00;99.90;;;;;;5086879;28;20217;-78
2021/03/22 08:10:27;;;;;;;4.75;2.25;;;8.90;99.90;;;;;;5077119;28;20207;-79
2021/03/22 08:13:00;;;;;;;4.85;2.90;;;8.90;99.90;;;;;;5071563;28;20649;-79
2021/03/22 08:15:34;;;;;;;4.80;2.42;;;8.90;99.90;;;;;;5074655;28;20214;-74
2021/03/22 08:18:19;;;;;;;5.40;2.72;;;8.90;99.90;;;;;;5082397;28;20220;-74
2021/03/22 08:20:56;;;;;;;3.92;2.47;;;8.80;99.90;;;;;;5079199;28;20229;-75
2021/03/22 08:23:29;;;;;;;6.70;2.53;;;8.80;99.90;;;;;;5082382;28;20793;-76
2021/03/22 08:25:58;;;;;;;5.97;3.22;;;8.80;99.90;;;;;;5091519;28;20189;-77
2021/03/22 08:28:30;;;;;;;4.45;2.30;;;8.80;99.90;;;;;;5088080;28;20193;-76
2021/03/22 08:31:05;;;;;;;11.43;3.40;;;8.80;99.90;;;;;;5080223;28;20190;-75
2021/03/22 08:33:38;;;;;;;9.25;3.00;;;8.80;99.90;;;;;;5095647;28;20246;-76
2021/03/22 08:36:31;;;;;;;4.40;2.65;;;8.80;99.90;;;;;;5098082;28;20254;-76
2021/03/22 08:39:03;;;;;;;7.95;2.67;;;8.80;99.90;;;;;;5094743;28;20220;-76
2021/03/22 08:41:34;;;;;;;2.72;2.38;;;8.80;99.90;;;;;;5083361;28;20177;-76
2021/03/22 08:44:10;;;;;;;4.57;2.40;;;8.80;99.90;;;;;;5077347;28;20206;-77
2021/03/22 08:46:44;;;;;;;7.50;2.70;;;8.80;99.90;;;;;;5077742;28;20198;-76
2021/03/22 08:49:27;;;;;;;4.15;2.70;;;8.80;99.90;;;;;;5078617;28;20221;-77
2021/03/22 08:51:54;;;;;;;2.75;2.10;;;8.80;99.90;;;;;;5086698;28;20209;-76
2021/03/22 08:54:24;;;;;;;5.00;2.17;;;8.80;99.90;;;;;;5087760;28;20214;-77
2021/03/22 08:56:59;;;;;;;6.18;2.22;;;8.80;99.90;;;;;;5090995;28;20210;-76
2021/03/22 08:59:26;;;;;;;3.08;2.10;;;8.80;99.90;;;;;;5092304;28;20196;-76
2021/03/22 09:02:16;;;;;;;7.20;2.65;;;8.90;99.90;;;;;;5096465;28;20205;-77
2021/03/22 09:04:43;;;;;;;2.85;2.10;;;8.90;99.90;;;;;;5092107;28;20221;-77
2021/03/22 09:07:34;;;;;;;3.35;2.40;;;8.90;99.90;;;;;;5078549;28;20344;-77
2021/03/22 09:10:37;;;;;;;10.52;2.22;;;8.90;99.90;;;;;;5076942;28;20190;-77
2021/03/22 09:13:25;;;;;;;2.58;1.85;;;8.80;99.90;;;;;;5077101;28;20259;-76
2021/03/22 09:16:37;;;;;;;3.38;1.90;;;8.80;99.90;;;;;;5068319;28;20305;-76
2021/03/22 09:19:45;;;;;;;4.57;2.50;;;8.70;99.90;;;;;;5080099;28;20201;-76
2021/03/22 09:22:54;;;;;;;3.17;1.85;;;8.70;99.90;;;;;;5077253;28;20218;-76
2021/03/22 09:26:02;;;;;;;3.75;2.03;;;8.70;99.90;;;;;;5077281;28;20214;-77
2021/03/22 09:29:01;;;;;;;2.55;1.70;;;8.70;99.90;;;;;;5077100;28;20289;-76
2021/03/22 09:31:42;;;;;;;2.83;2.10;;;8.70;99.90;;;;;;5078042;28;20210;-76
2021/03/22 09:34:48;;;;;;;2.35;1.52;;;8.70;99.90;;;;;;5082672;28;20334;-76
2021/03/22 09:37:46;;;;;;;2.05;1.60;;;8.80;99.90;;;;;;5077009;28;20853;-78
2021/03/22 09:40:52;;;;;;;3.67;1.48;;;8.70;99.90;;;;;;5073621;28;20249;-78
2021/03/22 09:43:48;;;;;;;3.05;1.30;;;8.80;99.90;;;;;;5073495;28;20213;-78
2021/03/22 09:46:33;;;;;;;1.73;1.48;;;8.80;99.90;;;;;;5071253;28;20222;-76
2021/03/22 09:49:24;;;;;;;4.28;1.88;;;8.80;99.90;;;;;;5074835;28;20221;-74
2021/03/22 09:51:55;;;;;;;2.83;1.48;;;8.80;99.90;;;;;;5075351;28;20297;-76
2021/03/22 09:54:38;;;;;;;3.40;1.88;;;8.80;99.90;;;;;;5074796;28;20545;-74
2021/03/22 09:57:35;;;;;;;2.92;2.25;;;8.90;99.90;;;;;;5076981;28;20613;-74
2021/03/22 10:00:27;;;;;;;3.55;1.73;;;8.90;99.90;;;;;;5094322;28;20209;-75
2021/03/22 10:02:56;;;;;;;2.00;1.70;;;8.90;99.90;;;;;;5094019;28;20189;-75
2021/03/22 10:05:27;;;;;;;1.63;1.50;;;8.90;99.90;;;;;;5081229;28;20283;-75
2021/03/22 10:08:06;;;;;;;3.65;1.40;;;8.90;99.90;;;;;;5089729;28;20648;-75
2021/03/22 10:10:36;;;;;;;1.77;1.30;;;8.90;99.90;;;;;;5089627;28;20194;-75
2021/03/22 10:13:14;;;;;;;2.85;1.50;;;8.90;99.90;;;;;;5089467;28;20720;-75
2021/03/22 10:15:49;;;;;;;1.90;1.42;;;8.90;99.90;;;;;;5089674;28;20218;-75
2021/03/22 10:18:23;;;;;;;1.40;1.20;;;8.90;99.90;;;;;;5094843;28;20204;-75
2021/03/22 10:21:00;;;;;;;3.90;1.50;;;8.90;99.90;;;;;;5084669;28;20228;-75
2021/03/22 10:23:30;;;;;;;1.85;1.02;;;9.00;99.90;;;;;;5078762;28;20256;-75
2021/03/22 10:26:04;;;;;;;2.60;1.40;;;9.00;99.90;;;;;;5094469;28;20201;-75
2021/03/22 10:28:31;;;;;;;2.35;1.35;;;8.90;99.90;;;;;;5076577;28;20709;-75
2021/03/22 10:31:00;;;;;;;1.55;1.30;;;8.90;99.90;;;;;;5094852;28;20217;-75
2021/03/22 10:33:28;;;;;;;2.15;1.10;;;9.00;99.90;;;;;;5094567;28;20214;-75
2021/03/22 10:35:58;;;;;;;2.40;1.40;;;9.00;99.90;;;;;;5091740;28;20225;-75
2021/03/22 10:38:28;;;;;;;1.52;1.42;;;8.90;99.90;;;;;;5093176;28;20182;-75
2021/03/22 10:40:55;;;;;;;2.17;1.50;;;9.00;99.90;;;;;;5093770;28;20210;-75
2021/03/22 10:43:25;;;;;;;2.03;1.30;;;9.00;99.90;;;;;;5092983;28;20185;-75
2021/03/22 10:45:51;;;;;;;1.15;0.93;;;9.10;99.90;;;;;;5093613;28;20224;-75
2021/03/22 10:48:34;;;;;;;1.70;1.10;;;9.20;99.90;;;;;;5093466;28;20221;-75
2021/03/22 10:51:16;;;;;;;1.30;1.20;;;9.20;99.90;;;;;;5092811;28;20216;-75
2021/03/22 10:53:57;;;;;;;2.00;1.10;;;9.30;99.90;;;;;;5073225;28;20645;-75
2021/03/22 10:56:28;;;;;;;3.08;1.40;;;9.20;99.90;;;;;;5072932;28;20234;-75
2021/03/22 10:58:57;;;;;;;1.27;1.10;;;9.30;99.90;;;;;;5073617;28;20218;-75
2021/03/22 11:01:31;;;;;;;1.60;1.10;;;9.40;99.90;;;;;;5082239;28;20190;-75
2021/03/22 11:04:03;;;;;;;4.35;1.40;;;9.40;99.90;;;;;;5093326;28;20212;-75
2021/03/22 11:06:33;;;;;;;1.73;1.10;;;9.40;99.90;;;;;;5093174;28;20217;-75
2021/03/22 11:09:05;;;;;;;2.38;1.30;;;9.40;99.90;;;;;;5073903;28;20202;-75
2021/03/22 11:11:32;;;;;;;1.55;1.15;;;9.50;99.90;;;;;;5077363;28;20331;-75
2021/03/22 11:14:01;;;;;;;1.30;0.90;;;9.50;99.90;;;;;;5094001;28;20209;-75
2021/03/22 11:16:31;;;;;;;1.95;1.30;;;9.50;99.90;;;;;;5085681;28;20217;-75
2021/03/22 11:18:58;;;;;;;1.90;1.30;;;9.50;99.90;;;;;;5093200;28;20213;-75
2021/03/22 11:21:27;;;;;;;1.38;1.20;;;9.50;99.90;;;;;;5091940;28;20286;-75
2021/03/22 11:23:57;;;;;;;1.30;0.98;;;9.60;99.90;;;;;;5084797;28;20279;-74
2021/03/22 11:26:26;;;;;;;1.00;0.90;;;9.50;99.90;;;;;;5076507;28;20536;-74
2021/03/22 11:29:13;;;;;;;1.05;0.93;;;9.60;99.90;;;;;;5093531;28;20245;-74
2021/03/22 11:31:41;;;;;;;3.08;1.30;;;9.60;99.90;;;;;;5078543;28;20227;-75
2021/03/22 11:34:15;;;;;;;2.30;1.30;;;9.60;99.90;;;;;;5083829;28;20271;-75
2021/03/22 11:36:45;;;;;;;1.40;1.00;;;9.60;99.90;;;;;;5076413;28;20225;-75
2021/03/22 11:39:21;;;;;;;1.25;1.08;;;9.70;99.90;;;;;;5093155;28;20205;-76
2021/03/22 11:42:04;;;;;;;1.15;1.00;;;9.60;99.90;;;;;;5091328;28;20217;-75
2021/03/22 11:44:33;;;;;;;2.80;1.65;;;9.70;99.90;;;;;;5074441;28;20210;-75
2021/03/22 11:47:41;;;;;;;2.47;1.15;;;9.70;99.90;;;;;;5074590;28;20253;-75
2021/03/22 11:50:34;;;;;;;2.30;1.30;;;9.70;99.90;;;;;;5074392;28;20291;-75
2021/03/22 11:53:07;;;;;;;2.85;1.23;;;9.70;99.90;;;;;;5074912;28;20206;-74
2021/03/22 11:55:37;;;;;;;1.10;0.98;;;9.70;99.90;;;;;;5074357;28;20214;-75
2021/03/22 11:58:04;;;;;;;4.82;1.98;;;9.70;99.90;;;;;;5075430;28;20222;-75
2021/03/22 12:00:34;;;;;;;1.65;1.10;;;9.70;99.90;;;;;;5076118;28;20244;-75
2021/03/22 12:03:07;;;;;;;2.00;1.38;;;9.80;99.90;;;;;;5072482;28;20217;-75
2021/03/22 12:05:36;;;;;;;1.20;1.10;;;9.80;99.90;;;;;;5075689;28;20182;-75
2021/03/22 12:08:31;;;;;;;2.38;1.38;;;9.80;99.90;;;;;;5075577;28;20198;-75
2021/03/22 12:10:57;;;;;;;1.23;1.00;;;9.80;99.90;;;;;;5075510;28;20743;-74
2021/03/22 12:13:23;;;;;;;1.25;1.05;;;9.80;99.90;;;;;;5075409;28;20561;-73
2021/03/22 12:15:50;;;;;;;1.42;1.15;;;9.80;99.90;;;;;;5080273;28;20213;-73
2021/03/22 12:18:21;;;;;;;1.20;1.00;;;9.80;99.90;;;;;;5074966;28;20226;-74
2021/03/22 12:20:48;;;;;;;1.80;1.00;;;9.80;99.90;;;;;;5093322;28;20244;-74
2021/03/22 12:23:15;;;;;;;1.10;0.90;;;9.80;99.90;;;;;;5084407;28;20216;-74
2021/03/22 12:25:42;;;;;;;1.20;0.90;;;9.80;99.90;;;;;;5077017;28;20198;-74
2021/03/22 12:28:08;;;;;;;2.83;0.93;;;9.80;99.90;;;;;;5078330;28;20213;-74
2021/03/22 12:30:35;;;;;;;2.92;1.08;;;9.80;99.90;;;;;;5072650;28;20238;-74
2021/03/22 12:33:02;;;;;;;1.95;1.08;;;9.80;99.90;;;;;;5077281;28;20218;-74
2021/03/22 12:35:31;;;;;;;1.00;0.90;;;9.90;99.90;;;;;;5073470;28;20300;-74
2021/03/22 12:37:57;;;;;;;2.25;0.98;;;9.90;99.90;;;;;;5073335;28;20241;-74
2021/03/22 12:40:25;;;;;;;3.08;1.25;;;9.90;99.90;;;;;;5079413;28;20213;-74
2021/03/22 12:42:53;;;;;;;1.85;1.17;;;9.90;99.90;;;;;;5091014;28;20229;-74
2021/03/22 12:45:23;;;;;;;2.13;1.15;;;9.90;99.90;;;;;;5092271;28;20315;-74
2021/03/22 12:47:51;;;;;;;1.40;1.10;;;9.90;99.90;;;;;;5081074;28;20218;-74
2021/03/22 12:50:21;;;;;;;2.65;1.20;;;10.00;99.90;;;;;;5072800;28;20217;-74
2021/03/22 12:52:49;;;;;;;1.50;0.90;;;10.00;99.90;;;;;;5078384;28;20216;-74
2021/03/22 12:55:16;;;;;;;1.30;1.05;;;10.00;99.90;;;;;;5092765;28;20224;-74
2021/03/22 12:57:43;;;;;;;1.40;1.13;;;10.00;99.90;;;;;;5083317;28;20403;-74
2021/03/22 13:00:12;;;;;;;2.75;1.15;;;10.00;99.90;;;;;;5072867;28;20210;-74
2021/03/22 13:02:39;;;;;;;1.02;0.90;;;10.10;99.90;;;;;;5072515;28;20217;-74
2021/03/22 13:05:17;;;;;;;1.02;0.90;;;10.10;99.90;;;;;;5072793;28;20217;-74
2021/03/22 13:07:43;;;;;;;1.63;1.00;;;10.10;99.90;;;;;;5072102;28;20187;-75
2021/03/22 13:10:11;;;;;;;2.00;1.52;;;10.10;99.90;;;;;;5075362;28;20218;-74
2021/03/22 13:12:37;;;;;;;1.60;1.00;;;10.20;99.90;;;;;;5073097;28;20199;-74
2021/03/22 13:15:07;;;;;;;1.40;1.30;;;10.20;99.90;;;;;;5075228;28;20224;-74
2021/03/22 13:17:35;;;;;;;1.50;1.00;;;10.20;99.90;;;;;;5076161;28;20237;-74
2021/03/22 13:20:03;;;;;;;1.10;0.93;;;10.20;99.90;;;;;;5077054;28;20234;-74
2021/03/22 13:22:31;;;;;;;3.40;1.38;;;10.20;99.90;;;;;;5079943;28;20185;-74
2021/03/22 13:24:58;;;;;;;1.17;0.98;;;10.20;99.90;;;;;;5075737;28;20262;-74
2021/03/22 13:27:24;;;;;;;1.25;1.10;;;10.20;99.90;;;;;;5081806;28;20209;-75